createdAt,value
2022-09-09T00:01:08.000Z,15.60
2022-09-09T00:03:46.219Z,15.60
2022-09-09T00:06:23.210Z,15.60
2022-09-09T00:09:03.512Z,15.60
2022-09-09T00:11:38.760Z,15.60
2022-09-09T00:14:16.678Z,15.60
2022-09-09T00:16:52.311Z,15.70
2022-09-09T00:19:26.421Z,15.70
2022-09-09T00:22:03.731Z,15.60
2022-09-09T00:24:40.812Z,15.60
2022-09-09T00:27:14.440Z,15.50
2022-09-09T00:29:47.272Z,15.50
2022-09-09T00:32:18.012Z,15.60
2022-09-09T00:34:55.500Z,15.60
2022-09-09T00:37:26.472Z,15.70
2022-09-09T00:40:01.170Z,15.80
2022-09-09T00:42:38.691Z,15.90
2022-09-09T00:45:20.943Z,16.00
2022-09-09T00:47:53.055Z,16.10
2022-09-09T00:50:52.183Z,16.20
2022-09-09T00:53:30.951Z,16.20
2022-09-09T00:56:11.636Z,16.20
2022-09-09T00:58:39.640Z,16.10
2022-09-09T01:01:12.879Z,16.10
2022-09-09T01:03:48.796Z,16.10
2022-09-09T01:06:29.570Z,16.20
2022-09-09T01:09:10.558Z,16.20
2022-09-09T01:11:51.384Z,16.20
2022-09-09T01:14:38.385Z,16.10
2022-09-09T01:17:11.145Z,16.00
2022-09-09T01:19:49.611Z,16.00
2022-09-09T01:22:29.051Z,15.90
2022-09-09T01:25:26.500Z,15.90
2022-09-09T01:27:58.371Z,15.80
2022-09-09T01:30:28.277Z,15.80
2022-09-09T01:32:59.790Z,15.70
2022-09-09T01:35:39.833Z,15.60
2022-09-09T01:38:08.452Z,15.50
2022-09-09T01:40:36.736Z,15.40
2022-09-09T01:43:07.592Z,15.30
2022-09-09T01:45:36.090Z,15.30
2022-09-09T01:48:04.800Z,15.20
2022-09-09T01:50:35.395Z,15.00
2022-09-09T01:53:04.757Z,15.00
2022-09-09T01:55:35.845Z,14.80
2022-09-09T01:58:20.300Z,14.70
2022-09-09T02:00:57.252Z,14.60
2022-09-09T02:03:29.579Z,14.60
2022-09-09T02:06:05.354Z,14.60
2022-09-09T02:08:41.674Z,14.60
2022-09-09T02:11:13.794Z,14.50
2022-09-09T02:13:44.945Z,14.50
2022-09-09T02:16:16.918Z,14.60
2022-09-09T02:18:49.065Z,14.50
2022-09-09T02:21:19.206Z,14.40
2022-09-09T02:23:50.377Z,14.30
2022-09-09T02:26:22.573Z,14.20
2022-09-09T02:28:54.571Z,14.10
2022-09-09T02:31:26.482Z,14.00
2022-09-09T02:33:58.295Z,13.90
2022-09-09T02:36:31.587Z,13.80
2022-09-09T02:38:59.580Z,13.80
2022-09-09T02:41:33.132Z,13.80
2022-09-09T02:44:03.377Z,13.80
2022-09-09T02:46:48.828Z,13.80
2022-09-09T02:49:25.210Z,13.90
2022-09-09T02:52:02.322Z,13.90
2022-09-09T02:54:34.893Z,14.10
2022-09-09T02:57:08.609Z,14.20
2022-09-09T02:59:42.456Z,14.40
2022-09-09T03:02:14.587Z,14.50
2022-09-09T03:04:44.746Z,14.50
2022-09-09T03:07:19.247Z,14.50
2022-09-09T03:09:52.969Z,14.50
2022-09-09T03:12:23.932Z,14.50
2022-09-09T03:14:54.599Z,14.50
2022-09-09T03:17:22.575Z,14.50
2022-09-09T03:19:51.496Z,14.50
2022-09-09T03:22:20.530Z,14.50
2022-09-09T03:24:50.474Z,14.50
2022-09-09T03:27:22.504Z,14.50
2022-09-09T03:29:52.569Z,14.50
2022-09-09T03:32:23.377Z,14.60
2022-09-09T03:34:51.599Z,14.60
2022-09-09T03:37:19.660Z,14.70
2022-09-09T03:39:49.430Z,14.80
2022-09-09T03:42:20.050Z,14.90
2022-09-09T03:44:54.137Z,14.90
2022-09-09T03:47:23.687Z,15.00
2022-09-09T03:49:52.057Z,15.10
2022-09-09T03:52:25.961Z,15.10
2022-09-09T03:54:59.212Z,15.10
2022-09-09T03:57:34.128Z,15.10
2022-09-09T04:00:08.871Z,15.00
2022-09-09T04:02:38.485Z,14.80
2022-09-09T04:05:09.618Z,14.80
2022-09-09T04:07:40.666Z,14.80
2022-09-09T04:10:15.077Z,14.90
2022-09-09T04:12:45.678Z,14.90
2022-09-09T04:15:20.107Z,14.90
2022-09-09T04:17:49.411Z,14.90
2022-09-09T04:20:17.481Z,14.90
2022-09-09T04:22:48.047Z,14.90
2022-09-09T04:25:16.135Z,14.90
2022-09-09T04:27:55.619Z,14.90
2022-09-09T04:30:25.653Z,14.90
2022-09-09T04:32:54.972Z,14.80
2022-09-09T04:35:27.382Z,14.80
2022-09-09T04:37:55.289Z,14.80
2022-09-09T04:40:23.253Z,14.70
2022-09-09T04:42:51.321Z,14.60
2022-09-09T04:45:19.549Z,14.50
2022-09-09T04:47:47.442Z,14.50
2022-09-09T04:50:18.323Z,14.50
2022-09-09T04:52:46.341Z,14.40
2022-09-09T04:55:14.601Z,14.40
2022-09-09T04:57:42.768Z,14.50
2022-09-09T05:00:12.768Z,14.50
2022-09-09T05:02:41.128Z,14.50
2022-09-09T05:05:09.399Z,14.60
2022-09-09T05:07:38.801Z,14.60
2022-09-09T05:10:07.384Z,14.70
2022-09-09T05:12:35.582Z,14.70
2022-09-09T05:15:03.628Z,14.70
2022-09-09T05:17:31.604Z,14.60
2022-09-09T05:19:59.743Z,14.50
2022-09-09T05:22:27.817Z,14.50
2022-09-09T05:24:57.177Z,14.50
2022-09-09T05:27:25.215Z,14.60
2022-09-09T05:29:54.210Z,14.70
2022-09-09T05:32:22.366Z,14.80
2022-09-09T05:34:50.429Z,15.00
2022-09-09T05:37:18.705Z,15.20
2022-09-09T05:39:47.390Z,15.30
2022-09-09T05:42:16.839Z,15.40
2022-09-09T05:44:45.850Z,15.50
2022-09-09T05:47:13.811Z,15.50
2022-09-09T05:49:41.752Z,15.50
2022-09-09T05:52:10.731Z,15.60
2022-09-09T05:54:38.846Z,15.70
2022-09-09T05:57:08.264Z,15.70
2022-09-09T05:59:37.562Z,15.60
2022-09-09T06:02:06.192Z,15.60
2022-09-09T06:04:34.665Z,15.60
2022-09-09T06:07:02.829Z,15.60
2022-09-09T06:09:31.403Z,15.70
2022-09-09T06:11:59.720Z,15.70
2022-09-09T06:14:28.286Z,15.70
2022-09-09T06:16:57.690Z,15.90
2022-09-09T06:19:27.394Z,16.10
2022-09-09T06:21:55.828Z,16.40
2022-09-09T06:24:24.198Z,16.90
2022-09-09T06:26:52.171Z,17.40
2022-09-09T06:29:20.208Z,17.60
2022-09-09T06:31:48.708Z,17.40
2022-09-09T06:34:18.336Z,17.30
2022-09-09T06:36:46.810Z,17.30
2022-09-09T06:39:16.530Z,17.60
2022-09-09T06:41:44.770Z,17.70
2022-09-09T06:44:13.779Z,17.80
2022-09-09T06:46:41.816Z,17.80
2022-09-09T06:49:11.559Z,17.60
2022-09-09T06:51:43.957Z,17.80
2022-09-09T06:54:13.109Z,18.20
2022-09-09T06:56:43.005Z,18.50
2022-09-09T06:59:13.186Z,18.70
2022-09-09T07:01:42.834Z,18.90
2022-09-09T07:04:11.982Z,19.30
2022-09-09T07:06:44.189Z,19.60
2022-09-09T07:09:14.775Z,19.50
2022-09-09T07:11:45.156Z,19.00
2022-09-09T07:14:14.986Z,18.40
2022-09-09T07:16:43.581Z,18.30
2022-09-09T07:19:12.162Z,18.20
2022-09-09T07:21:42.129Z,18.00
2022-09-09T07:24:13.954Z,17.80
2022-09-09T07:26:42.406Z,17.60
2022-09-09T07:29:10.734Z,17.70
2022-09-09T07:31:43.559Z,18.20
2022-09-09T07:34:11.575Z,19.10
2022-09-09T07:36:43.084Z,19.80
2022-09-09T07:39:14.030Z,20.10
2022-09-09T07:41:43.879Z,20.00
2022-09-09T07:44:13.702Z,19.90
2022-09-09T07:46:42.697Z,19.90
2022-09-09T07:49:11.719Z,19.60
2022-09-09T07:51:43.159Z,19.20
2022-09-09T07:54:13.513Z,19.30
2022-09-09T07:56:43.880Z,19.30
2022-09-09T07:59:13.230Z,19.60
2022-09-09T08:01:43.368Z,19.70
2022-09-09T08:04:16.525Z,20.00
2022-09-09T08:06:48.231Z,20.00
2022-09-09T08:09:17.336Z,19.90
2022-09-09T08:11:45.936Z,19.90
2022-09-09T08:14:14.270Z,19.80
2022-09-09T08:16:44.070Z,19.70
2022-09-09T08:19:12.146Z,19.90
2022-09-09T08:21:41.943Z,19.70
2022-09-09T08:24:12.986Z,19.40
2022-09-09T08:26:43.523Z,19.00
2022-09-09T08:29:13.096Z,18.80
2022-09-09T08:31:43.296Z,18.90
2022-09-09T08:34:11.599Z,18.90
2022-09-09T08:36:41.566Z,19.10
2022-09-09T08:39:11.961Z,19.20
2022-09-09T08:42:08.261Z,19.20
2022-09-09T08:44:52.573Z,19.20
2022-09-09T08:47:33.699Z,19.30
2022-09-09T08:50:14.866Z,19.50
2022-09-09T08:52:53.654Z,19.50
2022-09-09T08:55:32.045Z,19.60
2022-09-09T08:58:03.755Z,19.80
2022-09-09T09:00:42.040Z,19.90
2022-09-09T09:03:23.889Z,19.90
2022-09-09T09:06:03.447Z,19.80
2022-09-09T09:08:42.105Z,19.80
2022-09-09T09:11:11.806Z,20.00
2022-09-09T09:13:45.733Z,20.40
2022-09-09T09:16:24.187Z,20.60
2022-09-09T09:18:53.363Z,20.50
2022-09-09T09:21:30.132Z,21.00
2022-09-09T09:24:02.172Z,21.00
2022-09-09T09:26:35.414Z,21.10
2022-09-09T09:29:12.933Z,20.80
2022-09-09T09:31:41.046Z,20.70
2022-09-09T09:34:13.096Z,20.80
2022-09-09T09:36:48.012Z,20.70
2022-09-09T09:42:23.124Z,20.20
2022-09-09T09:44:51.800Z,20.00
2022-09-09T09:47:24.515Z,19.90
2022-09-09T09:49:56.259Z,19.70
2022-09-09T09:52:30.999Z,20.00
2022-09-09T09:55:05.291Z,20.20
2022-09-09T09:57:37.639Z,20.30
2022-09-09T10:00:16.040Z,20.40
2022-09-09T10:02:46.968Z,20.50
2022-09-09T10:05:17.841Z,20.30
2022-09-09T10:07:50.039Z,20.00
2022-09-09T10:10:27.041Z,20.30
2022-09-09T10:13:07.590Z,20.60
2022-09-09T10:15:46.707Z,20.80
2022-09-09T10:18:44.300Z,20.80
2022-09-09T10:21:32.908Z,21.00
2022-09-09T10:24:17.931Z,20.70
2022-09-09T10:26:56.341Z,20.60
2022-09-09T10:29:56.283Z,20.50
2022-09-09T10:32:43.137Z,20.90
2022-09-09T10:35:27.984Z,21.20
2022-09-09T10:38:15.830Z,21.10
2022-09-09T10:40:52.335Z,21.20
2022-09-09T10:43:33.637Z,21.20
2022-09-09T10:46:08.686Z,21.20
2022-09-09T10:48:55.788Z,21.00
2022-09-09T10:51:28.254Z,20.70
2022-09-09T10:54:13.721Z,20.60
2022-09-09T10:56:43.863Z,20.90
2022-09-09T10:59:17.805Z,21.00
2022-09-09T11:01:53.920Z,21.00
2022-09-09T11:04:27.588Z,20.80
2022-09-09T11:07:08.469Z,21.10
2022-09-09T11:09:43.961Z,21.20
2022-09-09T11:12:27.425Z,21.30
2022-09-09T11:15:01.232Z,21.30
2022-09-09T11:17:46.732Z,21.20
2022-09-09T11:20:19.984Z,21.30
2022-09-09T11:22:53.982Z,21.40
2022-09-09T11:25:31.359Z,21.40
2022-09-09T11:28:16.491Z,21.70
2022-09-09T11:30:57.198Z,22.00
2022-09-09T11:33:50.200Z,22.20
2022-09-09T11:36:45.668Z,22.30
2022-09-09T11:39:43.299Z,22.10
2022-09-09T11:42:19.811Z,21.90
2022-09-09T11:44:48.780Z,22.00
2022-09-09T11:47:31.004Z,21.40
2022-09-09T11:50:14.919Z,20.80
2022-09-09T11:52:49.575Z,20.40
2022-09-09T11:55:28.690Z,20.20
2022-09-09T11:58:01.190Z,20.20
2022-09-09T12:00:38.057Z,20.00
2022-09-09T12:03:30.615Z,20.30
2022-09-09T12:06:01.578Z,20.40
2022-09-09T12:08:30.873Z,20.90
2022-09-09T12:11:01.336Z,21.20
2022-09-09T12:13:29.924Z,21.20
2022-09-09T12:16:03.288Z,21.20
2022-09-09T12:18:36.112Z,21.00
2022-09-09T12:21:13.181Z,20.90
2022-09-09T12:23:47.637Z,20.80
2022-09-09T12:26:41.845Z,20.80
2022-09-09T12:29:23.733Z,20.80
2022-09-09T12:31:58.529Z,20.70
2022-09-09T12:34:38.051Z,20.60
2022-09-09T12:37:16.256Z,20.70
2022-09-09T12:39:49.557Z,20.70
2022-09-09T12:42:22.395Z,20.60
2022-09-09T12:44:58.346Z,20.60
2022-09-09T12:47:38.667Z,20.60
2022-09-09T12:50:19.630Z,20.60
2022-09-09T12:52:50.154Z,20.70
2022-09-09T12:55:22.818Z,20.70
2022-09-09T12:57:52.811Z,20.50
2022-09-09T13:00:23.597Z,20.60
2022-09-09T13:02:56.534Z,20.50
2022-09-09T13:05:30.278Z,20.80
2022-09-09T13:08:06.539Z,21.00
2022-09-09T13:10:52.884Z,21.30
2022-09-09T13:13:25.270Z,21.20
2022-09-09T13:15:55.645Z,21.20
2022-09-09T13:18:27.055Z,21.30
2022-09-09T13:20:58.977Z,21.50
2022-09-09T13:23:40.147Z,21.30
2022-09-09T13:26:24.709Z,21.10
2022-09-09T13:28:57.744Z,21.00
2022-09-09T13:31:35.082Z,21.00
2022-09-09T13:34:14.151Z,21.10
2022-09-09T13:36:43.440Z,21.00
2022-09-09T13:39:21.126Z,21.00
2022-09-09T13:41:50.558Z,21.00
2022-09-09T13:44:26.134Z,20.90
2022-09-09T13:47:10.280Z,20.80
2022-09-09T13:49:42.074Z,20.80
2022-09-09T13:52:16.531Z,20.70
2022-09-09T13:54:52.321Z,20.60
2022-09-09T13:57:26.079Z,20.50
2022-09-09T14:00:11.005Z,20.60
2022-09-09T14:02:42.065Z,20.70
2022-09-09T14:05:10.144Z,20.70
2022-09-09T14:07:38.786Z,20.70
2022-09-09T14:10:12.402Z,20.70
2022-09-09T14:12:40.538Z,20.80
2022-09-09T14:15:12.741Z,20.80
2022-09-09T14:17:40.832Z,20.70
2022-09-09T14:20:17.081Z,20.70
2022-09-09T14:22:45.593Z,20.70
2022-09-09T14:25:18.293Z,20.80
2022-09-09T14:27:49.826Z,20.80
2022-09-09T14:30:17.986Z,20.90
2022-09-09T14:32:48.567Z,20.90
2022-09-09T14:35:19.373Z,20.90
2022-09-09T14:37:47.674Z,20.90
2022-09-09T14:40:20.000Z,20.80
2022-09-09T14:42:52.550Z,20.90
2022-09-09T14:45:25.825Z,20.90
2022-09-09T14:47:57.097Z,21.00
2022-09-09T14:50:25.848Z,20.90
2022-09-09T14:52:53.832Z,20.70
2022-09-09T14:55:23.462Z,20.80
2022-09-09T14:57:53.296Z,20.90
2022-09-09T15:00:23.752Z,21.00
2022-09-09T15:02:55.958Z,21.10
2022-09-09T15:05:33.955Z,21.10
2022-09-09T15:08:06.831Z,21.20
2022-09-09T15:10:38.992Z,21.20
2022-09-09T15:13:07.082Z,21.10
2022-09-09T15:15:36.386Z,20.80
2022-09-09T15:18:06.666Z,20.60
2022-09-09T15:21:48.754Z,20.50
2022-09-09T15:23:24.636Z,20.40
2022-09-09T15:25:54.626Z,20.30
2022-09-09T15:28:23.086Z,20.30
2022-09-09T15:30:52.778Z,20.20
2022-09-09T15:33:22.165Z,20.30
2022-09-09T15:35:52.306Z,20.50
2022-09-09T15:38:20.634Z,20.70
2022-09-09T15:40:58.066Z,20.70
2022-09-09T15:43:27.321Z,20.50
2022-09-09T15:46:02.000Z,20.20
2022-09-09T15:48:34.529Z,19.90
2022-09-09T15:51:10.948Z,19.70
2022-09-09T15:53:51.231Z,19.60
2022-09-09T15:56:20.653Z,19.70
2022-09-09T15:58:48.892Z,19.70
2022-09-09T16:01:18.142Z,19.70
2022-09-09T16:03:47.399Z,19.60
2022-09-09T16:06:16.808Z,19.50
2022-09-09T16:08:50.928Z,19.40
2022-09-09T16:11:22.319Z,19.30
2022-09-09T16:13:52.033Z,19.20
2022-09-09T16:16:23.193Z,19.10
2022-09-09T16:18:52.996Z,19.10
2022-09-09T16:21:25.164Z,19.10
2022-09-09T16:23:58.371Z,19.20
2022-09-09T16:26:28.645Z,19.30
2022-09-09T16:28:59.771Z,19.30
2022-09-09T16:31:31.337Z,19.30
2022-09-09T16:33:59.617Z,19.30
2022-09-09T16:36:31.134Z,19.40
2022-09-09T16:39:02.316Z,19.50
2022-09-09T16:41:32.565Z,19.60
2022-09-09T16:44:03.350Z,19.60
2022-09-09T16:46:32.953Z,19.70
2022-09-09T16:49:02.918Z,19.70
2022-09-09T16:51:32.959Z,19.60
2022-09-09T16:54:02.903Z,19.50
2022-09-09T16:56:37.948Z,19.50
2022-09-09T16:59:09.477Z,19.40
2022-09-09T17:01:41.721Z,19.30
2022-09-09T17:04:11.981Z,19.10
2022-09-09T17:06:40.381Z,18.90
2022-09-09T17:09:16.344Z,18.70
2022-09-09T17:11:46.397Z,18.60
2022-09-09T17:14:17.427Z,18.40
2022-09-09T17:16:48.490Z,18.30
2022-09-09T17:19:17.098Z,18.10
2022-09-09T17:22:12.675Z,18.00
2022-09-09T17:24:39.477Z,18.00
2022-09-09T17:27:10.762Z,17.90
2022-09-09T17:29:44.745Z,17.90
2022-09-09T17:32:13.277Z,17.70
2022-09-09T17:34:45.077Z,17.60
2022-09-09T17:37:16.208Z,17.60
2022-09-09T17:39:45.690Z,17.40
2022-09-09T17:42:15.399Z,17.30
2022-09-09T17:44:45.285Z,17.30
2022-09-09T17:47:14.071Z,17.20
2022-09-09T17:49:49.957Z,17.20
2022-09-09T17:52:18.131Z,17.10
2022-09-09T17:54:46.566Z,17.10
2022-09-09T17:57:20.379Z,17.00
2022-09-09T17:59:50.796Z,16.90
2022-09-09T18:02:28.773Z,16.80
2022-09-09T18:04:57.496Z,16.60
2022-09-09T18:07:25.939Z,16.60
2022-09-09T18:09:55.193Z,16.60
2022-09-09T18:12:24.727Z,16.50
2022-09-09T18:14:53.009Z,16.50
2022-09-09T18:17:21.025Z,16.40
2022-09-09T18:19:50.211Z,16.30
2022-09-09T18:22:19.868Z,16.10
2022-09-09T18:24:48.474Z,16.10
2022-09-09T18:27:16.567Z,16.00
2022-09-09T18:29:45.988Z,15.90
2022-09-09T18:32:19.984Z,15.90
2022-09-09T18:34:50.683Z,15.90
2022-09-09T18:37:22.095Z,16.00
2022-09-09T18:39:50.361Z,16.10
2022-09-09T18:42:18.452Z,16.10
2022-09-09T18:44:49.983Z,16.10
2022-09-09T18:47:18.126Z,16.10
2022-09-09T18:49:47.349Z,16.10
2022-09-09T18:52:17.535Z,16.00
2022-09-09T18:54:46.131Z,16.00
2022-09-09T18:57:14.242Z,15.90
2022-09-09T18:59:42.284Z,15.90
2022-09-09T19:02:12.842Z,15.90
2022-09-09T19:04:44.181Z,16.00
2022-09-09T19:07:14.975Z,16.00
2022-09-09T19:09:43.044Z,16.00
2022-09-09T19:12:11.113Z,16.00
2022-09-09T19:14:39.063Z,16.10
2022-09-09T19:17:09.886Z,16.10
2022-09-09T19:19:44.617Z,16.20
2022-09-09T19:22:14.131Z,16.20
2022-09-09T19:24:53.823Z,16.10
2022-09-09T19:27:21.771Z,16.00
2022-09-09T19:29:56.338Z,16.00
2022-09-09T19:35:21.201Z,15.80
2022-09-09T19:37:51.025Z,15.80
2022-09-09T19:40:22.007Z,15.70
2022-09-09T19:42:53.904Z,15.60
2022-09-09T19:45:23.289Z,15.60
2022-09-09T19:47:51.647Z,15.50
2022-09-09T19:50:21.125Z,15.50
2022-09-09T19:52:54.708Z,15.50
2022-09-09T19:55:28.708Z,15.50
2022-09-09T19:57:58.867Z,15.40
2022-09-09T20:00:39.413Z,15.40
2022-09-09T20:03:18.643Z,15.50
2022-09-09T20:05:51.894Z,15.40
2022-09-09T20:08:21.262Z,15.40
2022-09-09T20:10:55.714Z,15.40
2022-09-09T20:13:23.696Z,15.40
2022-09-09T20:16:00.327Z,15.40
2022-09-09T20:18:32.281Z,15.40
2022-09-09T20:21:03.073Z,15.40
2022-09-09T20:23:31.788Z,15.30
2022-09-09T20:26:05.209Z,15.30
2022-09-09T20:28:34.480Z,15.30
2022-09-09T20:31:08.367Z,15.30
2022-09-09T20:33:37.396Z,15.20
2022-09-09T20:36:13.139Z,15.30
2022-09-09T20:38:45.386Z,15.20
2022-09-09T20:41:18.819Z,15.20
2022-09-09T20:43:49.472Z,15.20
2022-09-09T20:46:18.919Z,15.30
2022-09-09T20:48:50.188Z,15.20
2022-09-09T20:51:23.937Z,15.20
2022-09-09T20:53:59.470Z,15.20
2022-09-09T20:56:32.451Z,15.20
2022-09-09T20:59:02.774Z,15.10
2022-09-09T21:01:31.125Z,15.00
2022-09-09T21:04:00.071Z,15.00
2022-09-09T21:06:30.835Z,15.00
2022-09-09T21:08:59.131Z,15.00
2022-09-09T21:11:27.483Z,15.00
2022-09-09T21:13:56.553Z,15.00
2022-09-09T21:16:24.610Z,15.00
2022-09-09T21:18:52.728Z,15.00
2022-09-09T21:21:23.034Z,15.00
2022-09-09T21:23:56.008Z,15.00
2022-09-09T21:26:26.548Z,15.00
2022-09-09T21:29:00.036Z,15.00
2022-09-09T21:31:28.660Z,15.00
2022-09-09T21:33:57.248Z,15.00
2022-09-09T21:36:28.595Z,15.00
2022-09-09T21:38:59.352Z,15.00
2022-09-09T21:41:27.909Z,15.00
2022-09-09T21:43:56.613Z,15.00
2022-09-09T21:46:26.578Z,15.00
2022-09-09T21:48:56.925Z,15.00
2022-09-09T21:51:25.102Z,15.00
2022-09-09T21:53:57.919Z,15.00
2022-09-09T21:56:28.420Z,15.00
2022-09-09T21:58:57.629Z,15.00
2022-09-09T22:01:26.455Z,14.90
2022-09-09T22:03:57.550Z,15.00
2022-09-09T22:06:25.744Z,15.10
2022-09-09T22:08:58.991Z,15.10
2022-09-09T22:11:29.931Z,15.00
2022-09-09T22:13:58.050Z,15.00
2022-09-09T22:16:26.134Z,15.00
2022-09-09T22:18:58.289Z,15.00
2022-09-09T22:21:27.933Z,14.90
2022-09-09T22:23:57.612Z,15.00
2022-09-09T22:26:28.420Z,15.00
2022-09-09T22:29:00.561Z,14.90
2022-09-09T22:31:29.675Z,14.90
2022-09-09T22:33:57.765Z,14.80
2022-09-09T22:36:26.980Z,14.90
2022-09-09T22:38:57.266Z,15.00
2022-09-09T22:41:27.124Z,14.90
2022-09-09T22:44:02.351Z,14.90
2022-09-09T22:46:30.376Z,15.00
2022-09-09T22:48:59.241Z,15.00
2022-09-09T22:51:27.340Z,15.00
2022-09-09T22:53:57.175Z,15.10
2022-09-09T22:56:25.132Z,15.10
2022-09-09T22:58:55.824Z,15.10
2022-09-09T23:01:26.927Z,15.10
2022-09-09T23:03:55.762Z,15.20
2022-09-09T23:06:25.720Z,15.30
2022-09-09T23:08:56.220Z,15.30
2022-09-09T23:11:27.369Z,15.30
2022-09-09T23:14:00.575Z,15.40
2022-09-09T23:16:32.862Z,15.40
2022-09-09T23:19:01.987Z,15.30
2022-09-09T23:21:30.909Z,15.30
2022-09-09T23:24:01.106Z,15.40
2022-09-09T23:26:31.927Z,15.40
2022-09-09T23:29:02.586Z,15.50
2022-09-09T23:31:33.994Z,15.40
2022-09-09T23:34:02.656Z,15.40
2022-09-09T23:36:31.383Z,15.40
2022-09-09T23:38:59.802Z,15.40
2022-09-09T23:41:30.134Z,15.40
2022-09-09T23:43:58.183Z,15.40
2022-09-09T23:46:28.436Z,15.40
2022-09-09T23:48:59.426Z,15.40
2022-09-09T23:51:30.628Z,15.30
2022-09-09T23:54:01.846Z,15.40
2022-09-09T23:56:32.399Z,15.40
2022-09-09T23:59:00.899Z,15.30
